Time;durP1;ratioP1;P1;durP2;ratioP2;P2;SDS_P1;SDS_P2;PMS_P1;PMS_P2;Temp;Humidity;BMP_temperature;BMP_pressure;BME280_temperature;BME280_humidity;BME280_pressure;Samples;Min_cycle;Max_cycle;Signal;HPM_P1;HPM_P2
2022/11/26 00:00:30;;;;;;;21.75;5.03;;;11.00;99.90;;;;;;4983579;28;25111;-74
2022/11/26 00:02:56;;;;;;;19.05;5.35;;;11.00;99.90;;;;;;5010655;28;25126;-73
2022/11/26 00:05:22;;;;;;;20.52;6.25;;;11.10;99.90;;;;;;4984964;28;25089;-75
2022/11/26 00:07:55;;;;;;;16.52;5.57;;;11.00;99.90;;;;;;4987931;28;25073;-74
2022/11/26 00:10:29;;;;;;;22.73;6.63;;;11.00;99.90;;;;;;4999941;28;25058;-74
2022/11/26 00:12:56;;;;;;;21.75;5.93;;;11.00;99.90;;;;;;4975455;28;25069;-75
2022/11/26 00:15:24;;;;;;;21.52;5.15;;;11.00;99.90;;;;;;4983835;28;25057;-75
2022/11/26 00:17:51;;;;;;;24.90;7.13;;;11.00;99.90;;;;;;4987732;28;25060;-73
2022/11/26 00:20:20;;;;;;;20.33;4.90;;;11.00;99.90;;;;;;4989007;28;25087;-74
2022/11/26 00:22:54;;;;;;;25.42;7.30;;;11.10;99.90;;;;;;4993472;28;25063;-74
2022/11/26 00:25:23;;;;;;;11.18;5.07;;;11.20;99.90;;;;;;5008010;28;25099;-74
2022/11/26 00:27:51;;;;;;;35.65;6.57;;;11.20;99.90;;;;;;4987344;28;25112;-75
2022/11/26 00:30:20;;;;;;;15.48;5.40;;;11.10;99.90;;;;;;4987105;28;25078;-75
2022/11/26 00:32:46;;;;;;;24.45;5.63;;;11.10;99.90;;;;;;4990984;28;25088;-73
2022/11/26 00:35:12;;;;;;;23.58;5.97;;;11.00;99.90;;;;;;4989096;28;25143;-75
2022/11/26 00:37:57;;;;;;;27.50;7.07;;;10.90;99.90;;;;;;4992002;28;25164;-74
2022/11/26 00:40:26;;;;;;;17.92;5.57;;;10.80;99.90;;;;;;4986483;28;25078;-74
2022/11/26 00:42:52;;;;;;;20.40;6.20;;;10.80;99.90;;;;;;4989406;28;25062;-73
2022/11/26 00:45:27;;;;;;;23.77;5.75;;;10.70;99.90;;;;;;4995961;28;25062;-74
2022/11/26 00:47:53;;;;;;;19.65;5.50;;;10.70;99.90;;;;;;4987778;28;25068;-73
2022/11/26 00:50:21;;;;;;;24.35;5.20;;;10.70;99.90;;;;;;4989265;28;25057;-74
2022/11/26 00:52:51;;;;;;;18.45;5.03;;;10.50;99.90;;;;;;5002581;28;25098;-73
2022/11/26 00:55:30;;;;;;;25.63;6.75;;;10.40;99.90;;;;;;4988890;28;25071;-74
2022/11/26 00:57:57;;;;;;;21.17;6.30;;;10.40;99.90;;;;;;5006924;28;25057;-73
2022/11/26 01:00:25;;;;;;;27.77;5.80;;;10.40;99.90;;;;;;5024247;28;25135;-73
2022/11/26 01:02:51;;;;;;;19.95;5.72;;;10.40;99.90;;;;;;5018316;28;25064;-74
2022/11/26 01:05:17;;;;;;;19.08;6.28;;;10.50;99.90;;;;;;4995473;28;25056;-74
2022/11/26 01:07:44;;;;;;;13.68;4.88;;;10.60;99.90;;;;;;4998219;28;25064;-74
2022/11/26 01:10:23;;;;;;;21.92;5.72;;;10.60;99.90;;;;;;4983985;28;25122;-73
2022/11/26 01:12:50;;;;;;;20.38;6.38;;;10.60;99.90;;;;;;4982228;28;25066;-74
2022/11/26 01:15:18;;;;;;;17.73;6.50;;;10.60;99.90;;;;;;4985285;28;25060;-73
2022/11/26 01:17:44;;;;;;;26.40;6.75;;;10.50;99.90;;;;;;4984383;28;25072;-73
2022/11/26 01:20:28;;;;;;;19.10;5.68;;;10.40;99.90;;;;;;4988457;28;25045;-73
2022/11/26 01:22:56;;;;;;;19.60;6.45;;;10.50;99.90;;;;;;4984512;28;25081;-73
2022/11/26 01:25:22;;;;;;;27.65;7.40;;;10.40;99.90;;;;;;4981799;28;25067;-74
2022/11/26 01:27:48;;;;;;;17.38;5.90;;;10.40;99.90;;;;;;4983822;28;25060;-74
2022/11/26 01:30:29;;;;;;;21.67;7.20;;;10.50;99.90;;;;;;4984887;28;25152;-74
2022/11/26 01:32:55;;;;;;;13.88;5.97;;;10.50;99.90;;;;;;4984296;28;25070;-74
2022/11/26 01:35:22;;;;;;;19.77;6.20;;;10.40;99.90;;;;;;4984428;28;25072;-74
2022/11/26 01:37:48;;;;;;;27.42;6.50;;;10.30;99.90;;;;;;4980227;28;25167;-74
2022/11/26 01:40:25;;;;;;;18.98;6.40;;;10.40;99.90;;;;;;4982171;28;25138;-74
2022/11/26 01:43:30;;;;;;;28.30;6.57;;;10.40;99.90;;;;;;4985876;28;25107;-73
2022/11/26 01:45:56;;;;;;;18.33;6.85;;;10.30;99.90;;;;;;4976988;28;25082;-74
2022/11/26 01:48:33;;;;;;;24.48;7.28;;;10.10;99.90;;;;;;4981876;28;25086;-72
2022/11/26 01:51:05;;;;;;;24.92;7.38;;;10.20;99.90;;;;;;4985768;28;25061;-73
2022/11/26 01:53:45;;;;;;;25.75;7.53;;;10.30;99.90;;;;;;4998325;28;25151;-74
2022/11/26 01:56:10;;;;;;;26.95;7.50;;;10.30;99.90;;;;;;4982745;28;25109;-74
2022/11/26 01:58:43;;;;;;;13.48;5.93;;;10.40;99.90;;;;;;4989205;28;25087;-75
2022/11/26 02:01:09;;;;;;;25.60;7.47;;;10.40;99.90;;;;;;5007037;28;25084;-73
2022/11/26 02:03:43;;;;;;;25.65;7.90;;;10.40;99.90;;;;;;5019027;28;25070;-72
2022/11/26 02:06:18;;;;;;;19.45;6.90;;;10.40;99.90;;;;;;5016618;28;25096;-73
2022/11/26 02:08:44;;;;;;;34.20;8.15;;;10.30;99.90;;;;;;5002545;28;25109;-73
2022/11/26 02:11:16;;;;;;;25.50;7.82;;;10.20;99.90;;;;;;5004262;28;25087;-73
2022/11/26 02:13:43;;;;;;;;;;;10.30;99.90;;;;;;4997982;28;25099;-74
2022/11/26 02:16:24;;;;;;;27.83;7.47;;;10.20;99.90;;;;;;4994527;28;24079;-73
2022/11/26 02:19:12;;;;;;;21.60;7.13;;;10.30;99.90;;;;;;4985570;28;25047;-74
2022/11/26 02:21:41;;;;;;;22.58;7.80;;;10.20;99.90;;;;;;4987125;28;25148;-74
2022/11/26 02:24:25;;;;;;;17.27;7.13;;;10.20;99.90;;;;;;4989168;28;25109;-74
2022/11/26 02:27:20;;;;;;;23.30;7.85;;;10.20;99.90;;;;;;4985755;28;25078;-73
2022/11/26 02:30:06;;;;;;;24.45;7.80;;;10.20;99.90;;;;;;4999728;28;25146;-74
2022/11/26 02:32:57;;;;;;;22.60;6.80;;;10.20;99.90;;;;;;4987870;28;25077;-74
2022/11/26 02:35:44;;;;;;;27.45;7.40;;;10.30;99.90;;;;;;4977991;28;25107;-74
2022/11/26 02:38:14;;;;;;;30.17;7.55;;;10.30;99.90;;;;;;4982571;28;25132;-74
2022/11/26 02:40:40;;;;;;;20.90;7.45;;;10.40;99.90;;;;;;4986734;28;25089;-74
2022/11/26 02:43:05;;;;;;;19.13;6.68;;;10.50;99.90;;;;;;4985969;28;25068;-74
2022/11/26 02:45:36;;;;;;;19.88;8.00;;;10.40;99.90;;;;;;4989727;28;25061;-74
2022/11/26 02:48:05;;;;;;;30.13;7.28;;;10.50;99.90;;;;;;4982817;28;25069;-75
2022/11/26 02:50:41;;;;;;;21.33;8.02;;;10.40;99.90;;;;;;5007632;28;25060;-75
2022/11/26 02:53:08;;;;;;;19.25;7.25;;;10.30;99.90;;;;;;4987507;28;25055;-74
2022/11/26 02:55:38;;;;;;;26.10;7.55;;;10.20;99.90;;;;;;4990195;28;25076;-74
2022/11/26 02:58:05;;;;;;;24.60;7.53;;;10.30;99.90;;;;;;5001368;28;25054;-73
2022/11/26 03:00:34;;;;;;;19.73;7.43;;;10.40;99.90;;;;;;5000870;28;25062;-74
2022/11/26 03:03:21;;;;;;;24.02;8.02;;;10.40;99.90;;;;;;4990773;28;25101;-73
2022/11/26 03:05:49;;;;;;;30.58;9.13;;;10.50;99.90;;;;;;4997716;28;25066;-75
2022/11/26 03:08:15;;;;;;;24.25;9.98;;;10.60;99.90;;;;;;5003885;28;25068;-75
2022/11/26 03:10:41;;;;;;;26.98;8.02;;;10.60;99.90;;;;;;5007909;28;25072;-74
2022/11/26 03:13:06;;;;;;;37.17;10.40;;;10.60;99.90;;;;;;4985420;28;25096;-74
2022/11/26 03:15:32;;;;;;;24.00;7.90;;;10.60;99.90;;;;;;4994155;28;25107;-76
2022/11/26 03:17:57;;;;;;;19.80;8.35;;;10.60;99.90;;;;;;4988143;28;25075;-73
2022/11/26 03:20:23;;;;;;;31.45;7.65;;;10.60;99.90;;;;;;4978285;28;25062;-76
2022/11/26 03:22:49;;;;;;;19.20;7.35;;;10.70;99.90;;;;;;4982678;28;25121;-75
2022/11/26 03:25:14;;;;;;;33.50;10.18;;;10.80;99.90;;;;;;4986482;28;25068;-74
2022/11/26 03:27:40;;;;;;;29.95;9.10;;;10.80;99.90;;;;;;4980325;28;25059;-74
2022/11/26 03:30:06;;;;;;;32.00;8.48;;;10.60;99.90;;;;;;4983708;28;25068;-75
2022/11/26 03:32:32;;;;;;;29.83;9.32;;;10.70;99.90;;;;;;4984811;28;25083;-74
2022/11/26 03:34:57;;;;;;;22.05;8.02;;;10.60;99.90;;;;;;4987498;28;25107;-73
2022/11/26 03:37:23;;;;;;;24.63;9.75;;;10.70;99.90;;;;;;4997683;28;25056;-75
2022/11/26 03:39:49;;;;;;;27.92;8.95;;;10.70;99.90;;;;;;4989241;28;25115;-74
2022/11/26 03:42:14;;;;;;;21.20;8.57;;;10.70;99.90;;;;;;4983519;28;25069;-74
2022/11/26 03:44:40;;;;;;;31.92;10.95;;;10.70;99.90;;;;;;4980685;28;25059;-73
2022/11/26 03:47:06;;;;;;;34.65;9.05;;;10.80;99.90;;;;;;4988202;28;25117;-74
2022/11/26 03:49:31;;;;;;;32.55;10.27;;;10.90;99.90;;;;;;5002400;28;25055;-74
2022/11/26 03:51:57;;;;;;;37.78;10.40;;;10.90;99.90;;;;;;4999822;28;25094;-74
2022/11/26 03:54:23;;;;;;;33.25;9.93;;;10.70;99.90;;;;;;4992076;28;25134;-73
2022/11/26 03:56:48;;;;;;;26.35;9.85;;;10.80;99.90;;;;;;4985214;28;25112;-74
2022/11/26 03:59:14;;;;;;;36.15;9.77;;;10.90;99.90;;;;;;4996218;28;25064;-74
2022/11/26 04:01:39;;;;;;;34.47;10.88;;;10.90;99.90;;;;;;4992839;28;25148;-74
2022/11/26 04:04:05;;;;;;;30.45;10.15;;;10.90;99.90;;;;;;4990361;28;25066;-74
2022/11/26 04:06:30;;;;;;;38.97;10.63;;;10.90;99.90;;;;;;4989387;28;25095;-73
2022/11/26 04:08:56;;;;;;;24.08;10.15;;;10.90;99.90;;;;;;4988379;28;25123;-75
2022/11/26 04:11:22;;;;;;;31.17;9.68;;;10.90;99.90;;;;;;4993436;28;25065;-75
2022/11/26 04:13:47;;;;;;;32.83;11.13;;;10.90;99.90;;;;;;4986097;28;25064;-73
2022/11/26 04:16:13;;;;;;;30.95;9.30;;;10.90;99.90;;;;;;4991149;28;25129;-73
2022/11/26 04:18:38;;;;;;;27.13;9.52;;;11.00;99.90;;;;;;4988719;28;25069;-73
2022/11/26 04:21:06;;;;;;;30.55;10.45;;;11.00;99.90;;;;;;4996578;28;25077;-74
2022/11/26 04:23:32;;;;;;;23.60;10.10;;;10.90;99.90;;;;;;4991774;28;25065;-74
2022/11/26 04:25:58;;;;;;;38.05;11.50;;;10.90;99.90;;;;;;4982766;28;25061;-73
2022/11/26 04:28:23;;;;;;;39.47;11.57;;;11.00;99.90;;;;;;4994160;28;25155;-75
2022/11/26 04:30:49;;;;;;;37.28;10.85;;;11.10;99.90;;;;;;4996656;28;25086;-72
2022/11/26 04:33:14;;;;;;;27.20;10.82;;;11.10;99.90;;;;;;4992140;28;25146;-74
2022/11/26 04:35:41;;;;;;;45.33;11.88;;;11.20;99.90;;;;;;4987456;28;25131;-73
2022/11/26 04:38:07;;;;;;;36.00;12.23;;;11.00;99.90;;;;;;4991299;28;25080;-73
2022/11/26 04:40:32;;;;;;;39.47;11.40;;;11.00;99.90;;;;;;4987296;28;25128;-74
2022/11/26 04:42:58;;;;;;;36.42;10.23;;;11.10;99.90;;;;;;4985051;28;25070;-73
2022/11/26 04:45:24;;;;;;;38.92;12.35;;;11.00;99.90;;;;;;4991574;28;25103;-74
2022/11/26 04:47:49;;;;;;;38.78;11.02;;;11.00;99.90;;;;;;4996380;28;25057;-74
2022/11/26 04:50:15;;;;;;;40.55;11.60;;;11.00;99.90;;;;;;4984576;28;25161;-74
2022/11/26 04:52:40;;;;;;;35.85;10.75;;;11.10;99.90;;;;;;4987479;28;25052;-73
2022/11/26 04:55:06;;;;;;;45.05;11.75;;;11.20;99.90;;;;;;4989881;28;25104;-73
2022/11/26 04:57:32;;;;;;;38.08;10.75;;;11.20;99.90;;;;;;4993125;28;25074;-73
2022/11/26 04:59:57;;;;;;;39.22;12.13;;;11.10;99.90;;;;;;4992346;28;25094;-73
2022/11/26 05:02:23;;;;;;;31.15;11.02;;;11.00;99.90;;;;;;4993809;28;25047;-73
2022/11/26 05:04:50;;;;;;;38.22;11.82;;;11.10;99.90;;;;;;4990204;28;25060;-73
2022/11/26 05:07:15;;;;;;;33.05;13.27;;;11.10;99.90;;;;;;5001369;28;25061;-74
2022/11/26 05:09:41;;;;;;;37.03;11.77;;;11.00;99.90;;;;;;4990877;28;25093;-74
2022/11/26 05:12:06;;;;;;;39.70;11.45;;;11.00;99.90;;;;;;4989561;28;25130;-75
2022/11/26 05:14:32;;;;;;;37.38;11.88;;;11.00;99.90;;;;;;4997098;28;25101;-73
2022/11/26 05:16:58;;;;;;;37.75;10.68;;;11.00;99.90;;;;;;4994497;28;25047;-74
2022/11/26 05:19:23;;;;;;;38.10;12.18;;;10.90;99.90;;;;;;4992134;28;25160;-73
2022/11/26 05:21:49;;;;;;;42.65;12.45;;;11.00;99.90;;;;;;4997687;28;25150;-72
2022/11/26 05:24:14;;;;;;;42.58;12.35;;;10.90;99.90;;;;;;5001372;28;25063;-73
2022/11/26 05:26:40;;;;;;;35.38;13.73;;;10.90;99.90;;;;;;5001628;28;25106;-72
2022/11/26 05:29:05;;;;;;;42.20;12.43;;;11.00;99.90;;;;;;5000107;28;25057;-73
2022/11/26 05:31:31;;;;;;;41.25;13.77;;;10.80;99.90;;;;;;5007233;28;25079;-72
2022/11/26 05:33:57;;;;;;;43.78;11.88;;;10.90;99.90;;;;;;4997667;28;25098;-71
2022/11/26 05:36:22;;;;;;;29.38;11.52;;;11.10;99.90;;;;;;4996360;28;25102;-73
2022/11/26 05:38:48;;;;;;;26.92;10.18;;;11.10;99.90;;;;;;4986800;28;25071;-73
2022/11/26 05:41:13;;;;;;;46.92;12.45;;;11.30;99.90;;;;;;4983041;28;25054;-73
2022/11/26 05:43:39;;;;;;;35.90;11.70;;;11.30;99.90;;;;;;4983986;28;25138;-73
2022/11/26 05:46:06;;;;;;;33.25;11.07;;;11.30;99.90;;;;;;4983050;28;25146;-73
2022/11/26 05:48:32;;;;;;;35.35;11.98;;;11.30;99.90;;;;;;4998659;28;25102;-73
2022/11/26 05:50:59;;;;;;;39.63;11.38;;;11.30;99.90;;;;;;4983625;28;25089;-73
2022/11/26 05:53:25;;;;;;;37.00;11.18;;;11.20;99.90;;;;;;4982896;28;25153;-73
2022/11/26 05:55:51;;;;;;;44.35;12.77;;;11.20;99.90;;;;;;4981527;28;25054;-74
2022/11/26 05:58:16;;;;;;;30.90;11.32;;;11.30;99.90;;;;;;4985797;28;25080;-74
2022/11/26 06:00:42;;;;;;;28.23;11.07;;;11.30;99.90;;;;;;4980660;28;25122;-73
2022/11/26 06:03:08;;;;;;;30.90;11.88;;;11.40;99.90;;;;;;4980524;28;25049;-72
2022/11/26 06:05:33;;;;;;;35.70;10.80;;;11.30;99.90;;;;;;4978886;28;25161;-72
2022/11/26 06:07:59;;;;;;;41.28;11.98;;;11.40;99.90;;;;;;4984732;28;25128;-73
2022/11/26 06:10:25;;;;;;;30.73;11.43;;;11.50;99.90;;;;;;4986566;28;25105;-73
2022/11/26 06:12:50;;;;;;;46.00;10.98;;;11.40;99.90;;;;;;4983672;28;25151;-73
2022/11/26 06:15:16;;;;;;;28.10;10.60;;;11.50;99.90;;;;;;4981243;28;25056;-73
2022/11/26 06:17:42;;;;;;;33.33;9.90;;;11.50;99.90;;;;;;4989826;28;25062;-73
2022/11/26 06:20:08;;;;;;;45.55;10.77;;;11.50;99.90;;;;;;5004479;28;25097;-72
2022/11/26 06:22:41;;;;;;;36.00;10.85;;;11.50;99.90;;;;;;5003435;28;25058;-72
2022/11/26 06:25:12;;;;;;;35.10;11.35;;;11.50;99.90;;;;;;5008266;28;25141;-77
2022/11/26 06:27:39;;;;;;;36.03;11.38;;;11.50;99.90;;;;;;5000252;28;25068;-76
2022/11/26 06:30:06;;;;;;;32.35;10.95;;;11.40;99.90;;;;;;4986052;28;25062;-74
2022/11/26 06:32:32;;;;;;;29.75;10.82;;;11.50;99.90;;;;;;4985541;28;25074;-75
2022/11/26 06:34:57;;;;;;;28.48;10.90;;;11.50;99.90;;;;;;4987958;28;25062;-74
2022/11/26 06:37:24;;;;;;;19.35;8.52;;;11.40;99.90;;;;;;4988716;28;25145;-75
2022/11/26 06:39:50;;;;;;;23.92;8.70;;;11.50;99.90;;;;;;4994481;28;25064;-75
2022/11/26 06:42:16;;;;;;;40.25;10.25;;;11.60;99.90;;;;;;4989189;28;25082;-75
2022/11/26 06:44:42;;;;;;;30.83;10.00;;;11.50;99.90;;;;;;4985868;28;25125;-74
2022/11/26 06:47:12;;;;;;;37.88;10.32;;;11.40;99.90;;;;;;5001810;28;25078;-76
2022/11/26 06:49:38;;;;;;;23.42;9.73;;;11.50;99.90;;;;;;4983665;28;25067;-76
2022/11/26 06:52:04;;;;;;;38.28;10.32;;;11.40;99.90;;;;;;4991529;28;25115;-74
2022/11/26 06:54:29;;;;;;;34.25;10.48;;;11.50;99.90;;;;;;5001536;28;25062;-77
2022/11/26 06:56:55;;;;;;;32.33;9.27;;;11.40;99.90;;;;;;4989402;28;25111;-75
2022/11/26 06:59:21;;;;;;;34.88;9.40;;;11.30;99.90;;;;;;4996169;28;25058;-77
2022/11/26 07:01:46;;;;;;;28.08;9.52;;;11.40;99.90;;;;;;4999519;28;25072;-75
2022/11/26 07:04:12;;;;;;;32.63;10.15;;;11.40;99.90;;;;;;4987209;28;25074;-75
2022/11/26 07:06:38;;;;;;;30.00;8.95;;;11.40;99.90;;;;;;4995331;28;25130;-78
2022/11/26 07:09:09;;;;;;;32.88;8.98;;;11.40;99.90;;;;;;4994495;28;25094;-75
2022/11/26 07:11:37;;;;;;;44.83;9.68;;;11.20;99.90;;;;;;4982455;28;25376;-77
2022/11/26 07:14:03;;;;;;;25.13;7.65;;;11.30;99.90;;;;;;4991670;28;25075;-77
2022/11/26 07:16:28;;;;;;;23.58;8.27;;;11.30;99.90;;;;;;5006667;28;25148;-75
2022/11/26 07:18:55;;;;;;;24.23;8.07;;;11.30;99.90;;;;;;4995684;28;25129;-77
2022/11/26 07:21:22;;;;;;;24.70;7.85;;;11.40;99.90;;;;;;4999296;28;25067;-76
2022/11/26 07:23:49;;;;;;;26.95;8.23;;;11.30;99.90;;;;;;5001214;28;25126;-75
2022/11/26 07:26:16;;;;;;;32.17;8.30;;;11.30;99.90;;;;;;4992861;28;25067;-78
2022/11/26 07:28:42;;;;;;;38.67;8.98;;;11.30;99.90;;;;;;4991814;28;25074;-76
2022/11/26 07:31:12;;;;;;;31.08;8.90;;;11.40;99.90;;;;;;4998659;28;25098;-76
2022/11/26 07:33:38;;;;;;;28.48;8.52;;;11.50;99.90;;;;;;5006182;28;25110;-77
2022/11/26 07:36:07;;;;;;;26.60;8.48;;;11.40;99.90;;;;;;4995268;28;25093;-75
2022/11/26 07:38:33;;;;;;;27.50;8.55;;;11.40;99.90;;;;;;4985828;28;25146;-78
2022/11/26 07:41:04;;;;;;;32.95;11.93;;;11.50;99.90;;;;;;4995292;28;25064;-77
2022/11/26 07:43:30;;;;;;;38.05;8.02;;;11.60;99.90;;;;;;4994306;28;25075;-77
2022/11/26 07:45:55;;;;;;;21.30;8.40;;;11.50;99.90;;;;;;4995613;28;25082;-75
2022/11/26 07:48:21;;;;;;;25.35;8.63;;;11.70;99.90;;;;;;4981921;28;25125;-74
2022/11/26 07:50:46;;;;;;;41.83;9.05;;;11.60;99.90;;;;;;4981326;28;25067;-76
2022/11/26 07:53:13;;;;;;;38.63;9.40;;;11.70;99.90;;;;;;4985835;28;25068;-76
2022/11/26 07:55:40;;;;;;;33.35;10.30;;;11.70;99.90;;;;;;4990092;28;25065;-75
2022/11/26 07:58:05;;;;;;;34.28;8.60;;;11.80;99.90;;;;;;4989168;28;25063;-75
2022/11/26 08:00:31;;;;;;;32.33;8.45;;;12.00;99.90;;;;;;4992828;28;25071;-75
2022/11/26 08:02:56;;;;;;;22.88;7.68;;;12.10;99.90;;;;;;4994608;28;25065;-76
2022/11/26 08:05:22;;;;;;;23.00;7.30;;;12.10;99.90;;;;;;4991662;28;25049;-75
2022/11/26 08:07:48;;;;;;;30.00;8.63;;;12.20;99.90;;;;;;4995185;28;25058;-76
2022/11/26 08:10:14;;;;;;;23.75;6.72;;;12.20;99.90;;;;;;4990022;28;25128;-76
2022/11/26 08:12:40;;;;;;;24.73;7.95;;;12.20;99.90;;;;;;4993444;28;25061;-76
2022/11/26 08:15:06;;;;;;;22.27;7.70;;;12.30;99.90;;;;;;4987457;28;25057;-77
2022/11/26 08:17:31;;;;;;;32.33;7.78;;;12.30;99.90;;;;;;4992934;28;25062;-77
2022/11/26 08:19:57;;;;;;;19.65;7.53;;;12.40;99.90;;;;;;4991063;28;25123;-75
2022/11/26 08:22:22;;;;;;;25.75;7.60;;;12.30;99.90;;;;;;4976780;28;25150;-76
2022/11/26 08:24:49;;;;;;;24.42;7.75;;;12.40;99.90;;;;;;4989585;28;25065;-75
2022/11/26 08:27:14;;;;;;;28.55;8.57;;;12.20;99.90;;;;;;4992009;28;25065;-75
2022/11/26 08:29:40;;;;;;;25.77;7.93;;;12.30;99.90;;;;;;4988132;28;25125;-75
2022/11/26 08:32:05;;;;;;;26.98;7.10;;;12.30;99.90;;;;;;5005893;28;25099;-75
2022/11/26 08:34:32;;;;;;;29.42;7.68;;;12.40;99.90;;;;;;4985625;28;25150;-76
2022/11/26 08:36:58;;;;;;;26.55;7.57;;;12.30;99.90;;;;;;4997508;28;25067;-77
2022/11/26 08:39:24;;;;;;;25.65;6.97;;;12.30;99.90;;;;;;4990084;28;25142;-75
2022/11/26 08:41:49;;;;;;;36.92;7.97;;;12.40;99.90;;;;;;4993349;28;25090;-78
2022/11/26 08:44:15;;;;;;;31.02;9.00;;;12.50;99.90;;;;;;4982691;28;25119;-75
2022/11/26 08:46:41;;;;;;;28.75;8.00;;;12.50;99.90;;;;;;4984868;28;25097;-77
2022/11/26 08:49:11;;;;;;;19.85;7.72;;;12.50;99.90;;;;;;4985205;28;24987;-74
2022/11/26 08:51:36;;;;;;;28.20;8.10;;;12.60;99.90;;;;;;5000535;28;25066;-77
2022/11/26 08:54:02;;;;;;;26.13;7.32;;;12.60;99.90;;;;;;5005457;28;25097;-76
2022/11/26 08:56:28;;;;;;;21.23;7.88;;;12.60;99.90;;;;;;5000254;28;25088;-76
2022/11/26 08:58:54;;;;;;;29.25;7.55;;;12.60;99.90;;;;;;5001794;28;25052;-77
2022/11/26 09:01:26;;;;;;;27.60;8.82;;;12.60;99.90;;;;;;4988824;28;25144;-76
2022/11/26 09:03:54;;;;;;;32.83;8.50;;;12.70;99.90;;;;;;4979105;28;25098;-78
2022/11/26 09:06:21;;;;;;;30.33;7.15;;;12.80;99.90;;;;;;4998734;28;25048;-76
2022/11/26 09:11:35;;;;;;;23.00;7.88;;;12.70;99.90;;;;;;4981910;28;25104;-75
2022/11/26 09:14:01;;;;;;;22.98;8.10;;;12.90;99.90;;;;;;4981107;28;25109;-75
2022/11/26 09:16:27;;;;;;;25.85;7.45;;;12.90;99.90;;;;;;4983531;28;25071;-76
2022/11/26 09:18:53;;;;;;;30.55;8.63;;;13.00;99.90;;;;;;4984927;28;25083;-76
2022/11/26 09:21:21;;;;;;;42.63;7.32;;;13.00;99.90;;;;;;4983490;28;25063;-74
2022/11/26 09:23:47;;;;;;;27.45;8.10;;;13.00;99.90;;;;;;4981435;28;25141;-76
2022/11/26 09:26:13;;;;;;;41.85;8.10;;;13.20;99.90;;;;;;4978982;28;25109;-76
2022/11/26 09:28:38;;;;;;;30.48;8.13;;;13.30;99.90;;;;;;4987271;28;25069;-76
2022/11/26 09:31:04;;;;;;;33.78;8.35;;;13.30;99.90;;;;;;4979766;28;25087;-77
2022/11/26 09:33:30;;;;;;;40.53;7.68;;;13.40;99.90;;;;;;4983037;28;25160;-75
2022/11/26 09:36:07;;;;;;;18.38;6.40;;;13.40;99.90;;;;;;4983305;28;25139;-75
2022/11/26 09:38:34;;;;;;;29.83;6.72;;;13.50;99.90;;;;;;4988824;28;25055;-75
2022/11/26 09:41:02;;;;;;;39.45;8.90;;;13.60;99.90;;;;;;4997732;28;25084;-75
2022/11/26 09:43:37;;;;;;;25.33;7.85;;;13.70;99.90;;;;;;5008045;28;25062;-77
2022/11/26 09:46:03;;;;;;;32.58;8.63;;;13.90;99.90;;;;;;4996954;28;25058;-75
2022/11/26 09:48:32;;;;;;;24.77;6.88;;;14.00;99.90;;;;;;4995760;28;25066;-75
2022/11/26 09:51:06;;;;;;;31.42;7.47;;;14.10;99.90;;;;;;5006678;28;25147;-76
2022/11/26 09:53:39;;;;;;;31.92;8.13;;;14.20;99.90;;;;;;4991990;28;25065;-76
2022/11/26 09:56:12;;;;;;;28.95;6.80;;;14.40;99.90;;;;;;4981067;28;25129;-75
2022/11/26 09:58:52;;;;;;;24.70;6.82;;;14.10;99.90;;;;;;4985405;28;25069;-75
2022/11/26 10:01:21;;;;;;;20.70;6.97;;;14.00;99.90;;;;;;4984975;28;25076;-75
2022/11/26 10:03:47;;;;;;;29.25;8.05;;;14.10;99.90;;;;;;4975811;28;25078;-75
2022/11/26 10:06:56;;;;;;;23.58;6.93;;;14.00;99.90;;;;;;4982204;28;25058;-75
2022/11/26 10:09:47;;;;;;;24.20;7.00;;;14.00;99.90;;;;;;4981729;28;25099;-75
2022/11/26 10:12:31;;;;;;;20.00;6.63;;;14.00;99.90;;;;;;4987306;28;25054;-75
2022/11/26 10:15:27;;;;;;;25.85;7.72;;;14.10;99.90;;;;;;4983863;28;25124;-74
2022/11/26 10:18:20;;;;;;;19.48;6.75;;;14.30;99.90;;;;;;4989778;28;25076;-75
2022/11/26 10:21:11;;;;;;;19.08;6.93;;;14.20;99.90;;;;;;4995881;28;25073;-75
2022/11/26 10:23:49;;;;;;;27.60;7.13;;;14.20;99.90;;;;;;4988458;28;25058;-76
2022/11/26 10:26:21;;;;;;;30.92;7.88;;;14.30;99.90;;;;;;4981352;28;25175;-75
2022/11/26 10:28:49;;;;;;;30.98;8.27;;;14.30;99.90;;;;;;4984727;28;25090;-75
2022/11/26 10:31:22;;;;;;;26.13;7.10;;;14.30;99.90;;;;;;4985062;28;25078;-77
2022/11/26 10:34:02;;;;;;;26.00;7.32;;;14.30;99.90;;;;;;4998816;28;25072;-76
2022/11/26 10:36:41;;;;;;;22.08;6.10;;;14.40;99.90;;;;;;4986685;28;25052;-75
2022/11/26 10:39:11;;;;;;;23.70;7.60;;;14.50;99.90;;;;;;4985186;28;25074;-74
2022/11/26 10:41:37;;;;;;;22.85;7.85;;;14.60;99.90;;;;;;4982878;28;25093;-75
2022/11/26 10:44:28;;;;;;;29.88;6.25;;;14.70;99.90;;;;;;4983087;28;25077;-75
2022/11/26 10:46:54;;;;;;;16.90;6.20;;;14.80;99.90;;;;;;4981398;28;25139;-75
2022/11/26 10:49:25;;;;;;;27.30;6.22;;;14.90;99.90;;;;;;4978402;28;25101;-76
2022/11/26 10:52:02;;;;;;;35.22;6.93;;;14.60;99.90;;;;;;4988014;28;25058;-75
2022/11/26 10:54:37;;;;;;;22.42;5.68;;;14.50;99.90;;;;;;4978581;28;25094;-75
2022/11/26 10:57:09;;;;;;;18.08;5.15;;;14.30;99.90;;;;;;4981112;28;25086;-75
2022/11/26 10:59:54;;;;;;;24.30;7.25;;;14.40;99.90;;;;;;4982390;28;25105;-76
2022/11/26 11:02:29;;;;;;;25.92;6.20;;;14.40;99.90;;;;;;4988260;28;25071;-74
2022/11/26 11:04:57;;;;;;;20.42;6.05;;;14.40;99.90;;;;;;4989074;28;25127;-76
2022/11/26 11:07:38;;;;;;;21.13;5.68;;;14.40;99.90;;;;;;4990884;28;25072;-76
2022/11/26 11:10:07;;;;;;;24.85;6.97;;;14.40;99.90;;;;;;4990486;28;25056;-75
2022/11/26 11:12:33;;;;;;;29.08;6.40;;;14.50;99.90;;;;;;4979800;28;25109;-74
2022/11/26 11:15:24;;;;;;;18.63;5.68;;;14.60;99.90;;;;;;4984561;28;25077;-76
2022/11/26 11:17:54;;;;;;;22.88;5.30;;;14.50;99.90;;;;;;4991258;28;25056;-74
2022/11/26 11:20:37;;;;;;;19.80;5.65;;;14.40;99.90;;;;;;4988398;28;25066;-74
2022/11/26 11:23:08;;;;;;;;;;;14.20;99.90;;;;;;4996062;28;25069;-75
2022/11/26 11:25:37;;;;;;;19.38;5.47;;;13.90;99.90;;;;;;4991838;28;25127;-75
2022/11/26 11:28:27;;;;;;;19.23;5.78;;;13.90;99.90;;;;;;4988572;28;25106;-74
2022/11/26 11:31:05;;;;;;;21.80;7.15;;;13.70;99.90;;;;;;4969737;28;25115;-74
2022/11/26 11:33:31;;;;;;;36.03;6.75;;;13.80;99.90;;;;;;4980241;28;25156;-74
2022/11/26 11:36:18;;;;;;;15.57;5.53;;;13.80;99.90;;;;;;4986597;28;25070;-75
2022/11/26 11:38:58;;;;;;;15.02;6.03;;;13.80;99.90;;;;;;4993166;28;25100;-73
2022/11/26 11:41:47;;;;;;;24.27;5.93;;;13.80;99.90;;;;;;5002201;28;25059;-73
2022/11/26 11:44:19;;;;;;;31.02;7.38;;;13.80;99.90;;;;;;4984967;28;25078;-74
2022/11/26 11:47:19;;;;;;;19.27;5.57;;;13.70;99.90;;;;;;4985349;28;25134;-74
2022/11/26 11:49:52;;;;;;;22.80;6.07;;;13.80;99.90;;;;;;4989749;28;25063;-74
2022/11/26 11:52:52;;;;;;;21.48;5.95;;;13.90;99.90;;;;;;4987636;28;25137;-74
2022/11/26 11:55:53;;;;;;;29.73;6.10;;;13.90;99.90;;;;;;5004771;28;25077;-74
2022/11/26 11:58:49;;;;;;;18.67;5.72;;;13.80;99.90;;;;;;4979828;28;25071;-74
2022/11/26 12:01:55;;;;;;;12.95;5.35;;;13.80;99.90;;;;;;4982849;28;25116;-73
2022/11/26 12:04:52;;;;;;;23.85;6.05;;;13.90;99.90;;;;;;4992663;28;25082;-75
2022/11/26 12:07:33;;;;;;;15.15;5.07;;;14.00;99.90;;;;;;4982407;28;25148;-74
2022/11/26 12:10:11;;;;;;;26.15;6.57;;;13.90;99.90;;;;;;4981676;28;25152;-73
2022/11/26 12:12:49;;;;;;;22.13;6.18;;;14.00;99.90;;;;;;4981468;28;25087;-74
2022/11/26 12:15:29;;;;;;;28.02;6.40;;;14.00;99.90;;;;;;4995706;28;25061;-74
2022/11/26 12:18:16;;;;;;;23.73;5.93;;;14.10;99.90;;;;;;4981453;28;25094;-74
2022/11/26 12:20:49;;;;;;;14.27;4.30;;;14.20;99.90;;;;;;4998107;28;25064;-73
2022/11/26 12:23:39;;;;;;;18.67;4.70;;;14.50;99.90;;;;;;5003577;28;25099;-74
2022/11/26 12:26:28;;;;;;;18.27;5.22;;;14.40;99.90;;;;;;5002343;28;25057;-73
2022/11/26 12:29:28;;;;;;;12.10;4.97;;;14.20;99.90;;;;;;4996006;28;25065;-73
2022/11/26 12:32:02;;;;;;;19.23;4.65;;;14.20;99.90;;;;;;4982121;28;25062;-73
2022/11/26 12:34:33;;;;;;;15.68;5.80;;;13.90;99.90;;;;;;4984746;28;25072;-75
2022/11/26 12:37:22;;;;;;;13.77;5.35;;;13.70;99.90;;;;;;4980070;28;25055;-74
2022/11/26 12:40:15;;;;;;;21.50;5.32;;;13.70;99.90;;;;;;4982702;28;25080;-74
2022/11/26 12:42:44;;;;;;;25.55;5.57;;;13.20;99.90;;;;;;4995648;28;25068;-74
2022/11/26 12:45:25;;;;;;;18.77;4.68;;;13.30;99.90;;;;;;4983436;28;25089;-74
2022/11/26 12:47:59;;;;;;;20.50;4.90;;;13.40;99.90;;;;;;4981874;28;25078;-74
2022/11/26 12:50:49;;;;;;;17.90;4.95;;;13.50;99.90;;;;;;4979132;28;25145;-74
2022/11/26 12:54:03;;;;;;;25.40;5.05;;;13.40;99.90;;;;;;4977623;28;25060;-75
2022/11/26 12:57:00;;;;;;;16.67;5.13;;;13.20;99.90;;;;;;4981997;28;25127;-73